Estación Meteorológica Peña el Pijo (Robertgarden) [ 09/18/21 12:28:50 CEST ]

Fecha Hora Presion(HPa) Temp (°C) Humedad % Rocio (°C) Viento ( m/s) Direccion Lluvia 1Hora(mm) Lluvia 24H(mm) LLuvia Total(mm)
2021-May-04 01:09:15 1009.300 9.1 89 7.4 - N     89.61
2021-May-04 02:09:11 1009.000 8.6 89 6.9 - N     89.61
2021-May-04 03:10:17 1008.400 8.6 90 7.1 - N     89.61
2021-May-04 04:13:59 1008.300 7.6 90 6.1 - N     89.61
2021-May-04 05:10:54 1007.800 6.6 90 5.1 - N     89.61
2021-May-04 06:09:38 1007.800 5.9 90 4.4 - N     89.61
2021-May-04 07:09:35 1008.200 6.2 91 4.8 - N     89.61
2021-May-04 08:09:59 1008.700 6.9 91 5.5 - N     89.61
2021-May-04 09:09:32 1008.700 14.9 72 9.9 - N     89.61
2021-May-04 10:09:37 1008.400 16.6 60 8.8 - N     89.61
2021-May-04 11:09:41 1008.700 18.1 52 8.0 - N     89.61
2021-May-04 12:09:25 1008.600 18.9 50 8.3 - N     89.61
2021-May-04 13:09:39 1008.100 22.3 44 9.4 - N     89.61
2021-May-04 14:09:30 1007.600 22.3 39 7.6 - N     89.61
2021-May-04 15:09:36 1007.000 20.9 44 8.1 - N     89.61
2021-May-04 16:09:20 1006.500 20.6 43 7.5 - N     89.61
2021-May-04 17:09:39 1006.000 21.6 41 7.8 - N     89.61
2021-May-04 18:09:51 1005.900 19.6 43 6.6 - N     89.61
2021-May-04 19:09:50 1005.400 21.5 43 8.3 - N     89.61
2021-May-04 20:09:30 1005.400 18.2 55 8.9 - N     89.61
2021-May-04 21:09:53 1005.900 15.0 59 7.0 - N     89.61
2021-May-04 22:09:11 1006.800 13.9 73 9.1 - N     89.61
2021-May-04 23:10:03 1007.600 11.2 76 7.1 - N     89.61

Temperatura Máxima:22°    Temperatura Mínima:
Presión Máxima:1009.300 Hpa    Presión Mínima:1005.400 Hpa


Volver